sensor_id;sensor_type;location;lat;lon;timestamp;P1;durP1;ratioP1;P2;durP2;ratioP2
40595;SDS011;26304;48.794;9.820;2024-02-23T00:00:06;0.60;;;0.60;;
40595;SDS011;26304;48.794;9.820;2024-02-23T00:02:32;0.63;;;0.63;;
40595;SDS011;26304;48.794;9.820;2024-02-23T00:04:54;0.60;;;0.60;;
40595;SDS011;26304;48.794;9.820;2024-02-23T00:07:18;0.60;;;0.50;;
40595;SDS011;26304;48.794;9.820;2024-02-23T00:09:40;0.60;;;0.60;;
40595;SDS011;26304;48.794;9.820;2024-02-23T00:12:03;0.50;;;0.50;;
40595;SDS011;26304;48.794;9.820;2024-02-23T00:14:26;0.50;;;0.50;;
40595;SDS011;26304;48.794;9.820;2024-02-23T00:16:49;0.80;;;0.50;;
40595;SDS011;26304;48.794;9.820;2024-02-23T00:19:11;0.77;;;0.50;;
40595;SDS011;26304;48.794;9.820;2024-02-23T00:21:33;0.40;;;0.40;;
40595;SDS011;26304;48.794;9.820;2024-02-23T00:23:57;0.50;;;0.50;;
40595;SDS011;26304;48.794;9.820;2024-02-23T00:26:20;0.57;;;0.50;;
40595;SDS011;26304;48.794;9.820;2024-02-23T00:28:42;0.70;;;0.50;;
40595;SDS011;26304;48.794;9.820;2024-02-23T00:31:04;0.52;;;0.40;;
40595;SDS011;26304;48.794;9.820;2024-02-23T00:33:27;0.40;;;0.40;;
40595;SDS011;26304;48.794;9.820;2024-02-23T00:35:49;0.75;;;0.60;;
40595;SDS011;26304;48.794;9.820;2024-02-23T00:38:12;0.50;;;0.50;;
40595;SDS011;26304;48.794;9.820;2024-02-23T00:40:35;0.80;;;0.50;;
40595;SDS011;26304;48.794;9.820;2024-02-23T00:42:58;0.77;;;0.70;;
40595;SDS011;26304;48.794;9.820;2024-02-23T00:45:22;0.43;;;0.40;;
40595;SDS011;26304;48.794;9.820;2024-02-23T00:47:44;1.17;;;0.45;;
40595;SDS011;26304;48.794;9.820;2024-02-23T00:50:08;1.05;;;0.52;;
40595;SDS011;26304;48.794;9.820;2024-02-23T00:52:31;0.40;;;0.40;;
40595;SDS011;26304;48.794;9.820;2024-02-23T00:54:54;0.35;;;0.35;;
40595;SDS011;26304;48.794;9.820;2024-02-23T00:57:18;0.55;;;0.55;;
40595;SDS011;26304;48.794;9.820;2024-02-23T00:59:48;0.50;;;0.50;;
40595;SDS011;26304;48.794;9.820;2024-02-23T01:02:10;0.35;;;0.30;;
40595;SDS011;26304;48.794;9.820;2024-02-23T01:04:32;0.40;;;0.40;;
40595;SDS011;26304;48.794;9.820;2024-02-23T01:06:55;0.47;;;0.47;;
40595;SDS011;26304;48.794;9.820;2024-02-23T01:09:17;0.40;;;0.38;;
40595;SDS011;26304;48.794;9.820;2024-02-23T01:11:41;0.47;;;0.47;;
40595;SDS011;26304;48.794;9.820;2024-02-23T01:14:05;0.93;;;0.50;;
40595;SDS011;26304;48.794;9.820;2024-02-23T01:16:27;0.40;;;0.40;;
40595;SDS011;26304;48.794;9.820;2024-02-23T01:18:50;0.65;;;0.35;;
40595;SDS011;26304;48.794;9.820;2024-02-23T01:21:12;0.35;;;0.35;;
40595;SDS011;26304;48.794;9.820;2024-02-23T01:23:35;0.43;;;0.35;;
40595;SDS011;26304;48.794;9.820;2024-02-23T01:25:58;0.47;;;0.47;;
40595;SDS011;26304;48.794;9.820;2024-02-23T01:28:21;0.30;;;0.30;;
40595;SDS011;26304;48.794;9.820;2024-02-23T01:30:44;0.52;;;0.40;;
40595;SDS011;26304;48.794;9.820;2024-02-23T01:33:07;0.38;;;0.30;;
40595;SDS011;26304;48.794;9.820;2024-02-23T01:35:29;0.50;;;0.40;;
40595;SDS011;26304;48.794;9.820;2024-02-23T01:37:52;0.57;;;0.50;;
40595;SDS011;26304;48.794;9.820;2024-02-23T01:40:15;0.50;;;0.50;;
40595;SDS011;26304;48.794;9.820;2024-02-23T01:42:37;0.63;;;0.50;;
40595;SDS011;26304;48.794;9.820;2024-02-23T01:45:00;1.10;;;0.40;;
40595;SDS011;26304;48.794;9.820;2024-02-23T01:47:25;0.30;;;0.30;;
40595;SDS011;26304;48.794;9.820;2024-02-23T01:49:50;0.43;;;0.43;;
40595;SDS011;26304;48.794;9.820;2024-02-23T01:52:13;0.35;;;0.30;;
40595;SDS011;26304;48.794;9.820;2024-02-23T01:54:37;0.52;;;0.35;;
40595;SDS011;26304;48.794;9.820;2024-02-23T01:56:59;0.47;;;0.40;;
40595;SDS011;26304;48.794;9.820;2024-02-23T01:59:23;0.88;;;0.50;;
40595;SDS011;26304;48.794;9.820;2024-02-23T02:01:46;0.30;;;0.25;;
40595;SDS011;26304;48.794;9.820;2024-02-23T02:04:10;0.30;;;0.30;;
40595;SDS011;26304;48.794;9.820;2024-02-23T02:06:32;0.45;;;0.38;;
40595;SDS011;26304;48.794;9.820;2024-02-23T02:08:55;0.35;;;0.35;;
40595;SDS011;26304;48.794;9.820;2024-02-23T02:11:17;0.40;;;0.30;;
40595;SDS011;26304;48.794;9.820;2024-02-23T02:13:40;0.50;;;0.50;;
40595;SDS011;26304;48.794;9.820;2024-02-23T02:16:02;0.50;;;0.50;;
40595;SDS011;26304;48.794;9.820;2024-02-23T02:18:25;0.47;;;0.40;;
40595;SDS011;26304;48.794;9.820;2024-02-23T02:20:51;0.28;;;0.28;;
40595;SDS011;26304;48.794;9.820;2024-02-23T02:23:17;0.35;;;0.35;;
40595;SDS011;26304;48.794;9.820;2024-02-23T02:25:40;0.50;;;0.38;;
40595;SDS011;26304;48.794;9.820;2024-02-23T02:28:05;0.32;;;0.30;;
40595;SDS011;26304;48.794;9.820;2024-02-23T02:30:28;0.38;;;0.30;;
40595;SDS011;26304;48.794;9.820;2024-02-23T02:32:50;0.60;;;0.30;;
40595;SDS011;26304;48.794;9.820;2024-02-23T02:35:13;0.32;;;0.30;;
40595;SDS011;26304;48.794;9.820;2024-02-23T02:37:36;0.40;;;0.40;;
40595;SDS011;26304;48.794;9.820;2024-02-23T02:39:59;0.30;;;0.30;;
40595;SDS011;26304;48.794;9.820;2024-02-23T02:42:22;0.30;;;0.30;;
40595;SDS011;26304;48.794;9.820;2024-02-23T02:44:44;0.20;;;0.20;;
40595;SDS011;26304;48.794;9.820;2024-02-23T02:47:06;0.25;;;0.25;;
40595;SDS011;26304;48.794;9.820;2024-02-23T02:49:29;0.28;;;0.28;;
40595;SDS011;26304;48.794;9.820;2024-02-23T02:51:51;0.30;;;0.30;;
40595;SDS011;26304;48.794;9.820;2024-02-23T02:54:15;0.40;;;0.40;;
40595;SDS011;26304;48.794;9.820;2024-02-23T02:56:41;1.95;;;0.40;;
40595;SDS011;26304;48.794;9.820;2024-02-23T02:59:04;0.50;;;0.40;;
40595;SDS011;26304;48.794;9.820;2024-02-23T03:01:26;0.40;;;0.30;;
40595;SDS011;26304;48.794;9.820;2024-02-23T03:03:49;0.55;;;0.30;;
40595;SDS011;26304;48.794;9.820;2024-02-23T03:06:11;0.30;;;0.30;;
40595;SDS011;26304;48.794;9.820;2024-02-23T03:08:33;0.40;;;0.30;;
40595;SDS011;26304;48.794;9.820;2024-02-23T03:10:57;1.05;;;0.40;;
40595;SDS011;26304;48.794;9.820;2024-02-23T03:13:19;0.30;;;0.30;;
40595;SDS011;26304;48.794;9.820;2024-02-23T03:15:42;0.75;;;0.40;;
40595;SDS011;26304;48.794;9.820;2024-02-23T03:18:04;0.30;;;0.30;;
40595;SDS011;26304;48.794;9.820;2024-02-23T03:20:30;0.20;;;0.20;;
40595;SDS011;26304;48.794;9.820;2024-02-23T03:22:52;0.30;;;0.30;;
40595;SDS011;26304;48.794;9.820;2024-02-23T03:25:15;0.30;;;0.30;;
40595;SDS011;26304;48.794;9.820;2024-02-23T03:27:39;0.40;;;0.40;;
40595;SDS011;26304;48.794;9.820;2024-02-23T03:30:02;0.40;;;0.20;;
40595;SDS011;26304;48.794;9.820;2024-02-23T03:32:25;0.47;;;0.40;;
40595;SDS011;26304;48.794;9.820;2024-02-23T03:34:47;0.30;;;0.30;;
40595;SDS011;26304;48.794;9.820;2024-02-23T03:37:10;0.40;;;0.35;;
40595;SDS011;26304;48.794;9.820;2024-02-23T03:39:32;0.30;;;0.30;;
40595;SDS011;26304;48.794;9.820;2024-02-23T03:41:55;0.20;;;0.20;;
40595;SDS011;26304;48.794;9.820;2024-02-23T03:44:18;0.40;;;0.40;;
40595;SDS011;26304;48.794;9.820;2024-02-23T03:46:41;0.20;;;0.20;;
40595;SDS011;26304;48.794;9.820;2024-02-23T03:49:03;0.40;;;0.40;;
40595;SDS011;26304;48.794;9.820;2024-02-23T03:51:26;0.40;;;0.40;;
40595;SDS011;26304;48.794;9.820;2024-02-23T03:53:48;0.40;;;0.40;;
40595;SDS011;26304;48.794;9.820;2024-02-23T03:56:10;0.40;;;0.30;;
40595;SDS011;26304;48.794;9.820;2024-02-23T03:58:33;0.32;;;0.30;;
40595;SDS011;26304;48.794;9.820;2024-02-23T04:00:57;0.20;;;0.20;;
40595;SDS011;26304;48.794;9.820;2024-02-23T04:03:19;0.28;;;0.28;;
40595;SDS011;26304;48.794;9.820;2024-02-23T04:05:41;0.38;;;0.20;;
40595;SDS011;26304;48.794;9.820;2024-02-23T04:08:04;0.57;;;0.30;;
40595;SDS011;26304;48.794;9.820;2024-02-23T04:10:27;0.45;;;0.32;;
40595;SDS011;26304;48.794;9.820;2024-02-23T04:12:49;0.45;;;0.38;;
40595;SDS011;26304;48.794;9.820;2024-02-23T04:15:12;0.30;;;0.30;;
40595;SDS011;26304;48.794;9.820;2024-02-23T04:17:35;0.22;;;0.22;;
40595;SDS011;26304;48.794;9.820;2024-02-23T04:19:58;0.30;;;0.30;;
40595;SDS011;26304;48.794;9.820;2024-02-23T04:22:22;0.30;;;0.30;;
40595;SDS011;26304;48.794;9.820;2024-02-23T04:24:45;1.10;;;0.38;;
40595;SDS011;26304;48.794;9.820;2024-02-23T04:27:07;0.22;;;0.22;;
40595;SDS011;26304;48.794;9.820;2024-02-23T04:29:30;0.75;;;0.30;;
40595;SDS011;26304;48.794;9.820;2024-02-23T04:31:53;0.30;;;0.30;;
40595;SDS011;26304;48.794;9.820;2024-02-23T04:34:16;0.93;;;0.30;;
40595;SDS011;26304;48.794;9.820;2024-02-23T04:36:39;1.30;;;0.30;;
40595;SDS011;26304;48.794;9.820;2024-02-23T04:39:01;0.20;;;0.20;;
40595;SDS011;26304;48.794;9.820;2024-02-23T04:41:23;0.35;;;0.35;;
40595;SDS011;26304;48.794;9.820;2024-02-23T04:43:46;0.80;;;0.22;;
40595;SDS011;26304;48.794;9.820;2024-02-23T04:46:08;0.30;;;0.30;;
40595;SDS011;26304;48.794;9.820;2024-02-23T04:48:31;2.05;;;0.40;;
40595;SDS011;26304;48.794;9.820;2024-02-23T04:50:55;1.15;;;0.30;;
40595;SDS011;26304;48.794;9.820;2024-02-23T04:53:17;1.05;;;0.50;;
40595;SDS011;26304;48.794;9.820;2024-02-23T04:55:40;1.73;;;0.40;;
40595;SDS011;26304;48.794;9.820;2024-02-23T04:58:03;1.05;;;0.63;;
40595;SDS011;26304;48.794;9.820;2024-02-23T05:00:25;1.08;;;0.30;;
40595;SDS011;26304;48.794;9.820;2024-02-23T05:02:53;0.40;;;0.40;;
40595;SDS011;26304;48.794;9.820;2024-02-23T05:05:16;1.60;;;0.32;;
40595;SDS011;26304;48.794;9.820;2024-02-23T05:07:40;0.30;;;0.30;;
40595;SDS011;26304;48.794;9.820;2024-02-23T05:10:02;0.85;;;0.50;;
40595;SDS011;26304;48.794;9.820;2024-02-23T05:12:25;1.35;;;0.40;;
40595;SDS011;26304;48.794;9.820;2024-02-23T05:14:47;1.00;;;0.40;;
40595;SDS011;26304;48.794;9.820;2024-02-23T05:17:10;4.20;;;0.60;;
40595;SDS011;26304;48.794;9.820;2024-02-23T05:19:32;0.60;;;0.40;;
40595;SDS011;26304;48.794;9.820;2024-02-23T05:21:54;1.25;;;0.40;;
40595;SDS011;26304;48.794;9.820;2024-02-23T05:24:18;0.40;;;0.40;;
40595;SDS011;26304;48.794;9.820;2024-02-23T05:26:41;0.85;;;0.68;;
40595;SDS011;26304;48.794;9.820;2024-02-23T05:29:05;1.05;;;0.65;;
40595;SDS011;26304;48.794;9.820;2024-02-23T05:31:44;0.60;;;0.40;;
40595;SDS011;26304;48.794;9.820;2024-02-23T05:34:08;1.85;;;0.68;;
40595;SDS011;26304;48.794;9.820;2024-02-23T05:36:30;0.73;;;0.30;;
40595;SDS011;26304;48.794;9.820;2024-02-23T05:38:53;2.45;;;0.30;;
40595;SDS011;26304;48.794;9.820;2024-02-23T05:41:17;3.08;;;0.57;;
40595;SDS011;26304;48.794;9.820;2024-02-23T05:43:39;0.57;;;0.35;;
40595;SDS011;26304;48.794;9.820;2024-02-23T05:46:02;2.03;;;0.70;;
40595;SDS011;26304;48.794;9.820;2024-02-23T05:48:25;0.70;;;0.50;;
40595;SDS011;26304;48.794;9.820;2024-02-23T05:50:47;1.10;;;0.50;;
40595;SDS011;26304;48.794;9.820;2024-02-23T05:53:09;2.28;;;0.40;;
40595;SDS011;26304;48.794;9.820;2024-02-23T05:55:32;0.75;;;0.57;;
40595;SDS011;26304;48.794;9.820;2024-02-23T05:57:56;2.38;;;0.68;;
40595;SDS011;26304;48.794;9.820;2024-02-23T06:00:18;1.25;;;0.60;;
40595;SDS011;26304;48.794;9.820;2024-02-23T06:02:42;1.02;;;0.50;;
40595;SDS011;26304;48.794;9.820;2024-02-23T06:05:05;0.60;;;0.40;;
40595;SDS011;26304;48.794;9.820;2024-02-23T06:07:28;0.45;;;0.45;;
40595;SDS011;26304;48.794;9.820;2024-02-23T06:09:50;1.55;;;0.65;;
40595;SDS011;26304;48.794;9.820;2024-02-23T06:12:13;3.75;;;0.57;;
40595;SDS011;26304;48.794;9.820;2024-02-23T06:14:37;3.90;;;0.40;;
40595;SDS011;26304;48.794;9.820;2024-02-23T06:16:59;1.35;;;0.75;;
40595;SDS011;26304;48.794;9.820;2024-02-23T06:19:21;2.15;;;0.60;;
40595;SDS011;26304;48.794;9.820;2024-02-23T06:21:47;0.88;;;0.50;;
40595;SDS011;26304;48.794;9.820;2024-02-23T06:24:09;2.55;;;0.60;;
40595;SDS011;26304;48.794;9.820;2024-02-23T06:26:32;1.15;;;0.43;;
40595;SDS011;26304;48.794;9.820;2024-02-23T06:28:54;1.00;;;0.50;;
40595;SDS011;26304;48.794;9.820;2024-02-23T06:31:18;0.63;;;0.52;;
40595;SDS011;26304;48.794;9.820;2024-02-23T06:33:40;1.58;;;0.50;;
40595;SDS011;26304;48.794;9.820;2024-02-23T06:36:03;1.15;;;0.50;;
40595;SDS011;26304;48.794;9.820;2024-02-23T06:38:26;1.52;;;0.70;;
40595;SDS011;26304;48.794;9.820;2024-02-23T06:40:49;0.82;;;0.50;;
40595;SDS011;26304;48.794;9.820;2024-02-23T06:43:11;1.30;;;0.60;;
40595;SDS011;26304;48.794;9.820;2024-02-23T06:45:34;2.72;;;0.68;;
40595;SDS011;26304;48.794;9.820;2024-02-23T06:47:58;1.85;;;0.63;;
40595;SDS011;26304;48.794;9.820;2024-02-23T06:50:20;1.58;;;0.52;;
40595;SDS011;26304;48.794;9.820;2024-02-23T06:52:43;1.58;;;0.68;;
40595;SDS011;26304;48.794;9.820;2024-02-23T06:55:06;0.63;;;0.50;;
40595;SDS011;26304;48.794;9.820;2024-02-23T06:57:30;1.92;;;0.75;;
40595;SDS011;26304;48.794;9.820;2024-02-23T06:59:53;1.33;;;0.73;;
40595;SDS011;26304;48.794;9.820;2024-02-23T07:02:15;2.13;;;0.57;;
40595;SDS011;26304;48.794;9.820;2024-02-23T07:04:39;1.05;;;0.50;;
40595;SDS011;26304;48.794;9.820;2024-02-23T07:07:01;0.63;;;0.47;;
40595;SDS011;26304;48.794;9.820;2024-02-23T07:09:28;2.28;;;0.70;;
40595;SDS011;26304;48.794;9.820;2024-02-23T07:11:50;0.88;;;0.47;;
40595;SDS011;26304;48.794;9.820;2024-02-23T07:14:12;1.08;;;0.60;;
40595;SDS011;26304;48.794;9.820;2024-02-23T07:16:37;1.33;;;0.60;;
40595;SDS011;26304;48.794;9.820;2024-02-23T07:19:01;1.00;;;0.50;;
40595;SDS011;26304;48.794;9.820;2024-02-23T07:21:24;0.65;;;0.50;;
40595;SDS011;26304;48.794;9.820;2024-02-23T07:23:47;1.15;;;0.60;;
40595;SDS011;26304;48.794;9.820;2024-02-23T07:26:09;1.77;;;0.38;;
40595;SDS011;26304;48.794;9.820;2024-02-23T07:28:32;0.73;;;0.40;;
40595;SDS011;26304;48.794;9.820;2024-02-23T07:30:54;1.55;;;0.52;;
40595;SDS011;26304;48.794;9.820;2024-02-23T07:33:17;0.60;;;0.40;;
40595;SDS011;26304;48.794;9.820;2024-02-23T07:35:39;1.35;;;0.43;;
40595;SDS011;26304;48.794;9.820;2024-02-23T07:38:03;0.68;;;0.60;;
40595;SDS011;26304;48.794;9.820;2024-02-23T07:40:26;0.57;;;0.50;;
40595;SDS011;26304;48.794;9.820;2024-02-23T07:42:48;1.55;;;0.40;;
40595;SDS011;26304;48.794;9.820;2024-02-23T07:45:11;1.92;;;0.50;;
40595;SDS011;26304;48.794;9.820;2024-02-23T07:47:33;0.60;;;0.60;;
40595;SDS011;26304;48.794;9.820;2024-02-23T07:49:56;0.82;;;0.50;;
40595;SDS011;26304;48.794;9.820;2024-02-23T07:52:18;0.95;;;0.50;;
40595;SDS011;26304;48.794;9.820;2024-02-23T07:54:45;1.13;;;0.43;;
40595;SDS011;26304;48.794;9.820;2024-02-23T07:57:07;2.08;;;0.40;;
40595;SDS011;26304;48.794;9.820;2024-02-23T07:59:30;0.80;;;0.32;;
40595;SDS011;26304;48.794;9.820;2024-02-23T08:01:53;1.00;;;0.65;;
40595;SDS011;26304;48.794;9.820;2024-02-23T08:04:16;0.68;;;0.57;;
40595;SDS011;26304;48.794;9.820;2024-02-23T08:06:38;1.27;;;0.43;;
40595;SDS011;26304;48.794;9.820;2024-02-23T08:09:01;1.33;;;0.40;;
40595;SDS011;26304;48.794;9.820;2024-02-23T08:11:25;0.43;;;0.40;;
40595;SDS011;26304;48.794;9.820;2024-02-23T08:13:47;0.68;;;0.40;;
40595;SDS011;26304;48.794;9.820;2024-02-23T08:16:10;0.55;;;0.50;;
40595;SDS011;26304;48.794;9.820;2024-02-23T08:18:32;0.45;;;0.40;;
40595;SDS011;26304;48.794;9.820;2024-02-23T08:20:55;0.70;;;0.47;;
40595;SDS011;26304;48.794;9.820;2024-02-23T08:23:17;0.73;;;0.73;;
40595;SDS011;26304;48.794;9.820;2024-02-23T08:25:41;1.15;;;0.50;;
40595;SDS011;26304;48.794;9.820;2024-02-23T08:28:05;0.50;;;0.50;;
40595;SDS011;26304;48.794;9.820;2024-02-23T08:30:28;0.43;;;0.43;;
40595;SDS011;26304;48.794;9.820;2024-02-23T08:32:50;0.45;;;0.45;;
40595;SDS011;26304;48.794;9.820;2024-02-23T08:35:12;1.77;;;0.60;;
40595;SDS011;26304;48.794;9.820;2024-02-23T08:37:36;0.50;;;0.40;;
40595;SDS011;26304;48.794;9.820;2024-02-23T08:39:58;0.30;;;0.30;;
40595;SDS011;26304;48.794;9.820;2024-02-23T08:42:22;0.30;;;0.30;;
40595;SDS011;26304;48.794;9.820;2024-02-23T08:44:47;0.35;;;0.35;;
40595;SDS011;26304;48.794;9.820;2024-02-23T08:47:09;0.80;;;0.60;;
40595;SDS011;26304;48.794;9.820;2024-02-23T08:49:31;1.85;;;0.45;;
40595;SDS011;26304;48.794;9.820;2024-02-23T08:51:54;1.23;;;0.47;;
40595;SDS011;26304;48.794;9.820;2024-02-23T08:54:19;0.45;;;0.30;;
40595;SDS011;26304;48.794;9.820;2024-02-23T08:56:41;0.50;;;0.50;;
40595;SDS011;26304;48.794;9.820;2024-02-23T08:59:04;1.05;;;0.60;;
40595;SDS011;26304;48.794;9.820;2024-02-23T09:01:28;1.00;;;0.38;;
40595;SDS011;26304;48.794;9.820;2024-02-23T09:03:50;0.57;;;0.40;;
40595;SDS011;26304;48.794;9.820;2024-02-23T09:06:13;1.85;;;0.30;;
40595;SDS011;26304;48.794;9.820;2024-02-23T09:08:35;0.93;;;0.43;;
40595;SDS011;26304;48.794;9.820;2024-02-23T09:10:57;0.35;;;0.35;;
40595;SDS011;26304;48.794;9.820;2024-02-23T09:13:20;0.47;;;0.40;;
40595;SDS011;26304;48.794;9.820;2024-02-23T09:15:42;0.35;;;0.35;;
40595;SDS011;26304;48.794;9.820;2024-02-23T09:18:06;0.60;;;0.30;;
40595;SDS011;26304;48.794;9.820;2024-02-23T09:20:29;0.40;;;0.40;;
40595;SDS011;26304;48.794;9.820;2024-02-23T09:22:51;1.55;;;0.40;;
40595;SDS011;26304;48.794;9.820;2024-02-23T09:25:13;2.42;;;0.52;;
40595;SDS011;26304;48.794;9.820;2024-02-23T09:27:36;0.68;;;0.40;;
40595;SDS011;26304;48.794;9.820;2024-02-23T09:30:04;0.63;;;0.40;;
40595;SDS011;26304;48.794;9.820;2024-02-23T09:32:27;0.55;;;0.30;;
40595;SDS011;26304;48.794;9.820;2024-02-23T09:34:51;1.45;;;0.35;;
40595;SDS011;26304;48.794;9.820;2024-02-23T09:37:13;0.68;;;0.30;;
40595;SDS011;26304;48.794;9.820;2024-02-23T09:39:36;1.20;;;0.40;;
40595;SDS011;26304;48.794;9.820;2024-02-23T09:41:58;0.85;;;0.57;;
40595;SDS011;26304;48.794;9.820;2024-02-23T09:44:23;0.40;;;0.30;;
40595;SDS011;26304;48.794;9.820;2024-02-23T09:46:51;0.28;;;0.28;;
40595;SDS011;26304;48.794;9.820;2024-02-23T09:49:13;0.45;;;0.30;;
40595;SDS011;26304;48.794;9.820;2024-02-23T09:51:38;0.32;;;0.32;;
40595;SDS011;26304;48.794;9.820;2024-02-23T09:54:01;0.57;;;0.50;;
40595;SDS011;26304;48.794;9.820;2024-02-23T09:56:25;1.08;;;0.57;;
40595;SDS011;26304;48.794;9.820;2024-02-23T09:58:49;0.30;;;0.20;;
40595;SDS011;26304;48.794;9.820;2024-02-23T10:01:13;0.50;;;0.50;;
40595;SDS011;26304;48.794;9.820;2024-02-23T10:03:44;1.00;;;0.40;;
40595;SDS011;26304;48.794;9.820;2024-02-23T10:06:07;0.43;;;0.32;;
40595;SDS011;26304;48.794;9.820;2024-02-23T10:08:31;0.35;;;0.30;;
40595;SDS011;26304;48.794;9.820;2024-02-23T10:10:54;0.20;;;0.20;;
40595;SDS011;26304;48.794;9.820;2024-02-23T10:13:17;0.57;;;0.35;;
40595;SDS011;26304;48.794;9.820;2024-02-23T10:15:41;0.93;;;0.40;;
40595;SDS011;26304;48.794;9.820;2024-02-23T10:18:04;0.55;;;0.30;;
40595;SDS011;26304;48.794;9.820;2024-02-23T10:20:27;0.35;;;0.30;;
40595;SDS011;26304;48.794;9.820;2024-02-23T10:22:49;0.32;;;0.32;;
40595;SDS011;26304;48.794;9.820;2024-02-23T10:25:17;0.50;;;0.50;;
40595;SDS011;26304;48.794;9.820;2024-02-23T10:27:40;0.32;;;0.32;;
40595;SDS011;26304;48.794;9.820;2024-02-23T10:30:03;0.40;;;0.40;;
40595;SDS011;26304;48.794;9.820;2024-02-23T10:32:26;1.52;;;0.40;;
40595;SDS011;26304;48.794;9.820;2024-02-23T10:34:51;1.20;;;0.40;;
40595;SDS011;26304;48.794;9.820;2024-02-23T10:37:16;0.30;;;0.30;;
40595;SDS011;26304;48.794;9.820;2024-02-23T10:39:39;0.35;;;0.30;;
40595;SDS011;26304;48.794;9.820;2024-02-23T10:42:04;0.57;;;0.40;;
40595;SDS011;26304;48.794;9.820;2024-02-23T10:44:29;0.77;;;0.30;;
40595;SDS011;26304;48.794;9.820;2024-02-23T10:46:52;0.50;;;0.50;;
40595;SDS011;26304;48.794;9.820;2024-02-23T10:49:15;0.52;;;0.40;;
40595;SDS011;26304;48.794;9.820;2024-02-23T10:51:40;1.20;;;0.40;;
40595;SDS011;26304;48.794;9.820;2024-02-23T10:54:04;0.32;;;0.32;;
40595;SDS011;26304;48.794;9.820;2024-02-23T10:56:28;0.80;;;0.43;;
40595;SDS011;26304;48.794;9.820;2024-02-23T10:58:52;0.40;;;0.30;;
40595;SDS011;26304;48.794;9.820;2024-02-23T11:01:16;0.70;;;0.70;;
40595;SDS011;26304;48.794;9.820;2024-02-23T11:03:41;2.78;;;0.65;;
40595;SDS011;26304;48.794;9.820;2024-02-23T11:06:07;1.80;;;0.30;;
40595;SDS011;26304;48.794;9.820;2024-02-23T11:08:30;0.50;;;0.40;;
40595;SDS011;26304;48.794;9.820;2024-02-23T11:10:54;1.15;;;0.45;;
40595;SDS011;26304;48.794;9.820;2024-02-23T11:13:17;0.73;;;0.55;;
40595;SDS011;26304;48.794;9.820;2024-02-23T11:15:42;0.75;;;0.50;;
40595;SDS011;26304;48.794;9.820;2024-02-23T11:18:06;0.52;;;0.40;;
40595;SDS011;26304;48.794;9.820;2024-02-23T11:20:43;1.65;;;0.40;;
40595;SDS011;26304;48.794;9.820;2024-02-23T11:23:12;1.35;;;0.50;;
40595;SDS011;26304;48.794;9.820;2024-02-23T11:25:36;0.47;;;0.38;;
40595;SDS011;26304;48.794;9.820;2024-02-23T11:27:58;0.30;;;0.30;;
40595;SDS011;26304;48.794;9.820;2024-02-23T11:30:21;0.80;;;0.45;;
40595;SDS011;26304;48.794;9.820;2024-02-23T11:32:45;0.38;;;0.32;;
40595;SDS011;26304;48.794;9.820;2024-02-23T11:35:10;0.80;;;0.50;;
40595;SDS011;26304;48.794;9.820;2024-02-23T11:37:33;0.50;;;0.40;;
40595;SDS011;26304;48.794;9.820;2024-02-23T11:40:06;0.50;;;0.50;;
40595;SDS011;26304;48.794;9.820;2024-02-23T11:42:30;1.48;;;0.40;;
40595;SDS011;26304;48.794;9.820;2024-02-23T11:44:55;0.35;;;0.30;;
40595;SDS011;26304;48.794;9.820;2024-02-23T11:47:19;2.58;;;0.50;;
40595;SDS011;26304;48.794;9.820;2024-02-23T11:49:43;1.42;;;0.52;;
40595;SDS011;26304;48.794;9.820;2024-02-23T11:52:05;0.88;;;0.40;;
40595;SDS011;26304;48.794;9.820;2024-02-23T11:54:28;1.80;;;0.60;;
40595;SDS011;26304;48.794;9.820;2024-02-23T11:56:52;3.85;;;0.60;;
40595;SDS011;26304;48.794;9.820;2024-02-23T11:59:15;0.63;;;0.40;;
40595;SDS011;26304;48.794;9.820;2024-02-23T12:01:37;1.10;;;0.60;;
40595;SDS011;26304;48.794;9.820;2024-02-23T12:04:00;1.52;;;0.35;;
40595;SDS011;26304;48.794;9.820;2024-02-23T12:06:24;0.47;;;0.47;;
40595;SDS011;26304;48.794;9.820;2024-02-23T12:08:50;1.30;;;0.40;;
40595;SDS011;26304;48.794;9.820;2024-02-23T12:11:12;2.13;;;0.40;;
40595;SDS011;26304;48.794;9.820;2024-02-23T12:13:35;0.32;;;0.30;;
40595;SDS011;26304;48.794;9.820;2024-02-23T12:15:58;0.75;;;0.47;;
40595;SDS011;26304;48.794;9.820;2024-02-23T12:18:21;0.95;;;0.63;;
40595;SDS011;26304;48.794;9.820;2024-02-23T12:20:47;0.32;;;0.32;;
40595;SDS011;26304;48.794;9.820;2024-02-23T12:23:11;0.90;;;0.47;;
40595;SDS011;26304;48.794;9.820;2024-02-23T12:25:34;1.95;;;0.57;;
40595;SDS011;26304;48.794;9.820;2024-02-23T12:27:57;0.98;;;0.45;;
40595;SDS011;26304;48.794;9.820;2024-02-23T12:30:21;0.93;;;0.30;;
40595;SDS011;26304;48.794;9.820;2024-02-23T12:32:43;0.40;;;0.30;;
40595;SDS011;26304;48.794;9.820;2024-02-23T12:35:06;1.08;;;0.45;;
40595;SDS011;26304;48.794;9.820;2024-02-23T12:37:28;0.40;;;0.40;;
40595;SDS011;26304;48.794;9.820;2024-02-23T12:39:58;0.90;;;0.50;;
40595;SDS011;26304;48.794;9.820;2024-02-23T12:42:21;0.82;;;0.50;;
40595;SDS011;26304;48.794;9.820;2024-02-23T12:44:44;0.73;;;0.40;;
40595;SDS011;26304;48.794;9.820;2024-02-23T12:47:06;0.65;;;0.60;;
40595;SDS011;26304;48.794;9.820;2024-02-23T12:49:28;0.57;;;0.50;;
40595;SDS011;26304;48.794;9.820;2024-02-23T12:51:51;0.77;;;0.50;;
40595;SDS011;26304;48.794;9.820;2024-02-23T12:54:15;0.50;;;0.40;;
40595;SDS011;26304;48.794;9.820;2024-02-23T12:56:39;0.60;;;0.50;;
40595;SDS011;26304;48.794;9.820;2024-02-23T12:59:01;1.00;;;0.77;;
40595;SDS011;26304;48.794;9.820;2024-02-23T13:01:24;0.50;;;0.50;;
40595;SDS011;26304;48.794;9.820;2024-02-23T13:03:46;1.08;;;0.40;;
40595;SDS011;26304;48.794;9.820;2024-02-23T13:06:10;1.02;;;0.55;;
40595;SDS011;26304;48.794;9.820;2024-02-23T13:08:33;2.08;;;0.45;;
40595;SDS011;26304;48.794;9.820;2024-02-23T13:10:56;0.93;;;0.40;;
40595;SDS011;26304;48.794;9.820;2024-02-23T13:13:20;1.33;;;0.75;;
40595;SDS011;26304;48.794;9.820;2024-02-23T13:15:43;1.52;;;0.80;;
40595;SDS011;26304;48.794;9.820;2024-02-23T13:18:06;2.67;;;0.70;;
40595;SDS011;26304;48.794;9.820;2024-02-23T13:20:28;1.52;;;0.98;;
40595;SDS011;26304;48.794;9.820;2024-02-23T13:22:51;3.10;;;0.85;;
40595;SDS011;26304;48.794;9.820;2024-02-23T13:25:14;0.95;;;0.60;;
40595;SDS011;26304;48.794;9.820;2024-02-23T13:27:36;2.90;;;0.80;;
40595;SDS011;26304;48.794;9.820;2024-02-23T13:30:00;2.47;;;0.98;;
40595;SDS011;26304;48.794;9.820;2024-02-23T13:32:24;1.00;;;0.52;;
40595;SDS011;26304;48.794;9.820;2024-02-23T13:34:46;1.63;;;0.85;;
40595;SDS011;26304;48.794;9.820;2024-02-23T13:37:13;1.58;;;0.68;;
40595;SDS011;26304;48.794;9.820;2024-02-23T13:39:35;1.80;;;0.68;;
40595;SDS011;26304;48.794;9.820;2024-02-23T13:41:57;2.42;;;0.80;;
40595;SDS011;26304;48.794;9.820;2024-02-23T13:44:20;2.42;;;0.85;;
40595;SDS011;26304;48.794;9.820;2024-02-23T13:46:44;1.45;;;0.70;;
40595;SDS011;26304;48.794;9.820;2024-02-23T13:49:06;1.38;;;0.60;;
40595;SDS011;26304;48.794;9.820;2024-02-23T13:51:30;3.33;;;0.90;;
40595;SDS011;26304;48.794;9.820;2024-02-23T13:53:53;2.05;;;0.95;;
40595;SDS011;26304;48.794;9.820;2024-02-23T13:56:16;2.38;;;0.80;;
40595;SDS011;26304;48.794;9.820;2024-02-23T13:58:38;1.52;;;0.95;;
40595;SDS011;26304;48.794;9.820;2024-02-23T14:01:01;1.30;;;0.80;;
40595;SDS011;26304;48.794;9.820;2024-02-23T14:03:25;1.48;;;0.80;;
40595;SDS011;26304;48.794;9.820;2024-02-23T14:05:47;1.75;;;0.77;;
40595;SDS011;26304;48.794;9.820;2024-02-23T14:08:10;2.78;;;1.05;;
40595;SDS011;26304;48.794;9.820;2024-02-23T14:10:32;2.08;;;0.95;;
40595;SDS011;26304;48.794;9.820;2024-02-23T14:12:54;2.95;;;1.10;;
40595;SDS011;26304;48.794;9.820;2024-02-23T14:15:17;1.00;;;0.88;;
40595;SDS011;26304;48.794;9.820;2024-02-23T14:17:39;1.83;;;0.80;;
40595;SDS011;26304;48.794;9.820;2024-02-23T14:20:04;0.85;;;0.80;;
40595;SDS011;26304;48.794;9.820;2024-02-23T14:22:27;1.30;;;0.80;;